sensor_id;sensor_type;location;lat;lon;timestamp;pressure;altitude;pressure_sealevel;temperature;humidity
33414;BME280;60055;41.884;12.534;2023-03-14T00:01:21;100962.94;;;15.07;68.26
33414;BME280;60055;41.884;12.534;2023-03-14T00:03:46;100956.91;;;15.03;68.42
33414;BME280;60055;41.884;12.534;2023-03-14T00:06:12;100955.66;;;15.10;68.01
33414;BME280;60055;41.884;12.534;2023-03-14T00:08:38;100957.53;;;15.25;67.57
33414;BME280;60055;41.884;12.534;2023-03-14T00:11:06;100956.97;;;15.19;67.42
33414;BME280;60055;41.884;12.534;2023-03-14T00:13:31;100954.00;;;15.08;68.22
33414;BME280;60055;41.884;12.534;2023-03-14T00:16:02;100955.25;;;15.01;68.08
33414;BME280;60055;41.884;12.534;2023-03-14T00:18:27;100955.66;;;14.93;68.43
33414;BME280;60055;41.884;12.534;2023-03-14T00:20:53;100960.16;;;14.91;68.50
33414;BME280;60055;41.884;12.534;2023-03-14T00:23:18;100953.59;;;14.98;68.53
33414;BME280;60055;41.884;12.534;2023-03-14T00:25:43;100951.25;;;14.92;68.93
33414;BME280;60055;41.884;12.534;2023-03-14T00:28:09;100952.69;;;14.99;68.52
33414;BME280;60055;41.884;12.534;2023-03-14T00:30:37;100954.47;;;14.99;68.76
33414;BME280;60055;41.884;12.534;2023-03-14T00:33:02;100954.53;;;14.97;69.13
33414;BME280;60055;41.884;12.534;2023-03-14T00:35:28;100948.13;;;15.01;68.82
33414;BME280;60055;41.884;12.534;2023-03-14T00:37:53;100951.25;;;14.92;69.07
33414;BME280;60055;41.884;12.534;2023-03-14T00:40:18;100951.25;;;14.92;68.67
33414;BME280;60055;41.884;12.534;2023-03-14T00:42:44;100944.31;;;14.90;68.80
33414;BME280;60055;41.884;12.534;2023-03-14T00:45:09;100951.03;;;14.79;69.03
33414;BME280;60055;41.884;12.534;2023-03-14T00:47:35;100946.97;;;14.54;69.52
33414;BME280;60055;41.884;12.534;2023-03-14T00:50:00;100944.41;;;14.33;69.56
33414;BME280;60055;41.884;12.534;2023-03-14T00:52:26;100931.97;;;14.53;69.18
33414;BME280;60055;41.884;12.534;2023-03-14T00:54:51;100931.28;;;14.49;69.24
33414;BME280;60055;41.884;12.534;2023-03-14T00:57:17;100929.59;;;14.47;69.54
33414;BME280;60055;41.884;12.534;2023-03-14T00:59:48;100928.31;;;14.55;69.68
33414;BME280;60055;41.884;12.534;2023-03-14T01:02:15;100915.81;;;14.74;68.42
33414;BME280;60055;41.884;12.534;2023-03-14T01:04:40;100901.06;;;14.86;68.03
33414;BME280;60055;41.884;12.534;2023-03-14T01:07:08;100897.91;;;14.78;67.76
33414;BME280;60055;41.884;12.534;2023-03-14T01:09:33;100893.69;;;14.74;68.16
33414;BME280;60055;41.884;12.534;2023-03-14T01:11:58;100880.81;;;14.83;67.64
33414;BME280;60055;41.884;12.534;2023-03-14T01:14:24;100865.78;;;14.82;67.07
33414;BME280;60055;41.884;12.534;2023-03-14T01:16:49;100868.50;;;14.64;67.72
33414;BME280;60055;41.884;12.534;2023-03-14T01:19:15;100861.66;;;14.60;67.76
33414;BME280;60055;41.884;12.534;2023-03-14T01:21:41;100849.34;;;14.40;68.22
33414;BME280;60055;41.884;12.534;2023-03-14T01:24:06;100855.34;;;14.44;68.26
33414;BME280;60055;41.884;12.534;2023-03-14T01:26:34;100867.03;;;14.58;67.82
33414;BME280;60055;41.884;12.534;2023-03-14T01:28:59;100852.69;;;14.44;68.24
33414;BME280;60055;41.884;12.534;2023-03-14T01:31:25;100850.69;;;14.49;67.85
33414;BME280;60055;41.884;12.534;2023-03-14T01:33:51;100845.75;;;14.41;67.91
33414;BME280;60055;41.884;12.534;2023-03-14T01:36:17;100850.53;;;14.33;67.44
33414;BME280;60055;41.884;12.534;2023-03-14T01:38:43;100847.84;;;14.35;67.49
33414;BME280;60055;41.884;12.534;2023-03-14T01:41:14;100844.44;;;14.31;67.53
33414;BME280;60055;41.884;12.534;2023-03-14T01:43:40;100837.34;;;14.31;67.62
33414;BME280;60055;41.884;12.534;2023-03-14T01:48:36;100821.22;;;14.36;67.21
33414;BME280;60055;41.884;12.534;2023-03-14T01:51:06;100823.34;;;14.28;67.17
33414;BME280;60055;41.884;12.534;2023-03-14T01:53:34;100807.22;;;14.32;66.72
33414;BME280;60055;41.884;12.534;2023-03-14T01:56:00;100804.81;;;14.26;66.71
33414;BME280;60055;41.884;12.534;2023-03-14T01:58:27;100795.78;;;14.30;66.49
33414;BME280;60055;41.884;12.534;2023-03-14T02:00:57;100789.81;;;14.44;65.14
33414;BME280;60055;41.884;12.534;2023-03-14T02:03:24;100775.97;;;14.38;65.17
33414;BME280;60055;41.884;12.534;2023-03-14T02:05:53;100771.69;;;14.35;64.75
33414;BME280;60055;41.884;12.534;2023-03-14T02:08:22;100762.97;;;14.31;65.15
33414;BME280;60055;41.884;12.534;2023-03-14T02:10:49;100758.19;;;14.40;64.96
33414;BME280;60055;41.884;12.534;2023-03-14T02:13:18;100746.84;;;14.36;64.26
33414;BME280;60055;41.884;12.534;2023-03-14T02:15:45;100739.22;;;14.11;64.62
33414;BME280;60055;41.884;12.534;2023-03-14T02:18:12;100735.69;;;14.11;64.99
33414;BME280;60055;41.884;12.534;2023-03-14T02:21:53;100727.34;;;14.01;64.38
33414;BME280;60055;41.884;12.534;2023-03-14T02:24:20;100712.31;;;13.83;64.43
33414;BME280;60055;41.884;12.534;2023-03-14T02:27:05;100705.38;;;13.80;64.55
33414;BME280;60055;41.884;12.534;2023-03-14T02:29:33;100700.13;;;13.62;65.12
33414;BME280;60055;41.884;12.534;2023-03-14T02:32:01;100696.50;;;13.63;65.14
33414;BME280;60055;41.884;12.534;2023-03-14T02:34:27;100686.09;;;13.41;65.57
33414;BME280;60055;41.884;12.534;2023-03-14T02:36:53;100677.19;;;13.42;65.87
33414;BME280;60055;41.884;12.534;2023-03-14T02:39:29;100678.47;;;13.52;66.81
33414;BME280;60055;41.884;12.534;2023-03-14T02:41:56;100672.31;;;13.69;65.36
33414;BME280;60055;41.884;12.534;2023-03-14T02:44:22;100657.13;;;13.72;65.17
33414;BME280;60055;41.884;12.534;2023-03-14T02:46:47;100648.44;;;13.69;64.49
33414;BME280;60055;41.884;12.534;2023-03-14T02:49:14;100640.47;;;13.69;63.99
33414;BME280;60055;41.884;12.534;2023-03-14T02:51:40;100637.00;;;13.68;64.43
33414;BME280;60055;41.884;12.534;2023-03-14T02:54:07;100632.53;;;13.69;64.15
33414;BME280;60055;41.884;12.534;2023-03-14T02:56:33;100615.50;;;13.56;64.11
33414;BME280;60055;41.884;12.534;2023-03-14T02:58:58;100614.25;;;13.46;64.81
33414;BME280;60055;41.884;12.534;2023-03-14T03:01:24;100599.91;;;13.50;64.50
33414;BME280;60055;41.884;12.534;2023-03-14T03:03:50;100599.31;;;13.62;63.97
33414;BME280;60055;41.884;12.534;2023-03-14T03:06:15;100601.47;;;13.71;65.20
33414;BME280;60055;41.884;12.534;2023-03-14T03:08:41;100603.09;;;13.56;63.48
33414;BME280;60055;41.884;12.534;2023-03-14T03:11:07;100596.94;;;13.56;63.38
33414;BME280;60055;41.884;12.534;2023-03-14T03:13:33;100597.63;;;13.59;63.66
33414;BME280;60055;41.884;12.534;2023-03-14T03:15:58;100594.81;;;13.62;63.29
33414;BME280;60055;41.884;12.534;2023-03-14T03:18:24;100581.41;;;13.82;63.00
33414;BME280;60055;41.884;12.534;2023-03-14T03:20:49;100589.06;;;13.89;62.25
33414;BME280;60055;41.884;12.534;2023-03-14T03:23:14;100598.81;;;13.88;62.37
33414;BME280;60055;41.884;12.534;2023-03-14T03:25:40;100597.72;;;13.92;62.08
33414;BME280;60055;41.884;12.534;2023-03-14T03:28:05;100605.59;;;13.94;61.55
33414;BME280;60055;41.884;12.534;2023-03-14T03:30:39;100611.06;;;13.91;61.89
33414;BME280;60055;41.884;12.534;2023-03-14T03:33:05;100607.09;;;13.82;61.96
33414;BME280;60055;41.884;12.534;2023-03-14T03:35:31;100603.50;;;13.83;62.29
33414;BME280;60055;41.884;12.534;2023-03-14T03:37:56;100589.47;;;13.81;62.34
33414;BME280;60055;41.884;12.534;2023-03-14T03:40:21;100587.13;;;13.92;62.55
33414;BME280;60055;41.884;12.534;2023-03-14T03:42:47;100578.66;;;14.01;62.26
33414;BME280;60055;41.884;12.534;2023-03-14T03:45:12;100574.59;;;14.11;61.85
33414;BME280;60055;41.884;12.534;2023-03-14T03:47:38;100576.00;;;14.01;63.53
33414;BME280;60055;41.884;12.534;2023-03-14T03:50:03;100568.66;;;14.06;62.32
33414;BME280;60055;41.884;12.534;2023-03-14T03:52:29;100570.69;;;14.01;61.67
33414;BME280;60055;41.884;12.534;2023-03-14T03:54:54;100567.88;;;14.04;61.73
33414;BME280;60055;41.884;12.534;2023-03-14T03:57:20;100568.59;;;13.91;61.94
33414;BME280;60055;41.884;12.534;2023-03-14T03:59:45;100579.22;;;13.91;62.62
33414;BME280;60055;41.884;12.534;2023-03-14T04:02:11;100569.16;;;13.80;62.57
33414;BME280;60055;41.884;12.534;2023-03-14T04:04:36;100566.50;;;13.80;62.51
33414;BME280;60055;41.884;12.534;2023-03-14T04:07:03;100569.09;;;13.81;62.66
33414;BME280;60055;41.884;12.534;2023-03-14T04:09:28;100550.19;;;13.70;63.00
33414;BME280;60055;41.884;12.534;2023-03-14T04:11:54;100547.31;;;13.75;63.06
33414;BME280;60055;41.884;12.534;2023-03-14T04:14:19;100547.53;;;13.70;62.83
33414;BME280;60055;41.884;12.534;2023-03-14T04:16:45;100544.25;;;13.82;62.55
33414;BME280;60055;41.884;12.534;2023-03-14T04:19:10;100559.09;;;13.69;63.61
33414;BME280;60055;41.884;12.534;2023-03-14T04:21:35;100564.06;;;13.75;63.17
33414;BME280;60055;41.884;12.534;2023-03-14T04:24:01;100554.41;;;13.57;64.26
33414;BME280;60055;41.884;12.534;2023-03-14T04:26:26;100559.88;;;13.54;64.20
33414;BME280;60055;41.884;12.534;2023-03-14T04:28:51;100555.50;;;13.53;64.21
33414;BME280;60055;41.884;12.534;2023-03-14T04:31:19;100558.88;;;13.57;64.27
33414;BME280;60055;41.884;12.534;2023-03-14T04:33:45;100557.56;;;13.48;64.94
33414;BME280;60055;41.884;12.534;2023-03-14T04:36:11;100559.19;;;13.51;64.77
33414;BME280;60055;41.884;12.534;2023-03-14T04:38:37;100569.78;;;13.51;64.88
33414;BME280;60055;41.884;12.534;2023-03-14T04:41:02;100562.59;;;13.53;64.61
33414;BME280;60055;41.884;12.534;2023-03-14T04:43:28;100557.41;;;13.51;65.53
33414;BME280;60055;41.884;12.534;2023-03-14T04:45:55;100542.47;;;13.66;64.93
33414;BME280;60055;41.884;12.534;2023-03-14T04:48:21;100535.47;;;13.48;64.98
33414;BME280;60055;41.884;12.534;2023-03-14T04:50:47;100516.34;;;13.41;64.87
33414;BME280;60055;41.884;12.534;2023-03-14T04:53:13;100511.91;;;13.42;64.54
33414;BME280;60055;41.884;12.534;2023-03-14T04:55:38;100509.25;;;13.42;64.90
33414;BME280;60055;41.884;12.534;2023-03-14T04:58:04;100512.75;;;13.42;65.21
33414;BME280;60055;41.884;12.534;2023-03-14T05:00:29;100510.34;;;13.38;64.53
33414;BME280;60055;41.884;12.534;2023-03-14T05:02:55;100512.13;;;13.37;64.25
33414;BME280;60055;41.884;12.534;2023-03-14T05:05:20;100508.56;;;13.38;64.34
33414;BME280;60055;41.884;12.534;2023-03-14T05:07:46;100504.41;;;13.50;64.41
33414;BME280;60055;41.884;12.534;2023-03-14T05:10:15;100497.28;;;13.67;63.53
33414;BME280;60055;41.884;12.534;2023-03-14T05:12:40;100503.00;;;13.60;63.35
33414;BME280;60055;41.884;12.534;2023-03-14T05:15:06;100511.88;;;13.59;63.69
33414;BME280;60055;41.884;12.534;2023-03-14T05:17:34;100501.56;;;13.70;63.52
33414;BME280;60055;41.884;12.534;2023-03-14T05:20:00;100500.50;;;13.57;63.51
33414;BME280;60055;41.884;12.534;2023-03-14T05:22:25;100496.91;;;13.58;63.01
33414;BME280;60055;41.884;12.534;2023-03-14T05:24:51;100491.06;;;13.68;62.65
33414;BME280;60055;41.884;12.534;2023-03-14T05:27:16;100496.25;;;13.70;62.38
33414;BME280;60055;41.884;12.534;2023-03-14T05:29:43;100507.84;;;13.52;63.52
33414;BME280;60055;41.884;12.534;2023-03-14T05:32:08;100503.47;;;13.68;63.72
33414;BME280;60055;41.884;12.534;2023-03-14T05:34:33;100502.97;;;13.77;63.17
33414;BME280;60055;41.884;12.534;2023-03-14T05:36:59;100499.59;;;13.91;61.31
33414;BME280;60055;41.884;12.534;2023-03-14T05:39:24;100505.13;;;13.86;60.94
33414;BME280;60055;41.884;12.534;2023-03-14T05:41:50;100501.25;;;13.76;62.15
33414;BME280;60055;41.884;12.534;2023-03-14T05:44:16;100508.13;;;13.80;62.23
33414;BME280;60055;41.884;12.534;2023-03-14T05:46:41;100499.22;;;13.81;62.54
33414;BME280;60055;41.884;12.534;2023-03-14T05:49:06;100507.34;;;13.78;62.34
33414;BME280;60055;41.884;12.534;2023-03-14T05:51:32;100499.63;;;13.73;62.00
33414;BME280;60055;41.884;12.534;2023-03-14T05:53:57;100502.88;;;13.96;61.51
33414;BME280;60055;41.884;12.534;2023-03-14T05:56:22;100494.63;;;14.00;59.73
33414;BME280;60055;41.884;12.534;2023-03-14T05:58:48;100496.72;;;14.11;59.89
33414;BME280;60055;41.884;12.534;2023-03-14T06:01:17;100492.22;;;14.28;61.96
33414;BME280;60055;41.884;12.534;2023-03-14T06:03:42;100490.44;;;14.60;61.00
33414;BME280;60055;41.884;12.534;2023-03-14T06:06:08;100491.81;;;14.83;60.89
33414;BME280;60055;41.884;12.534;2023-03-14T06:08:34;100483.38;;;14.91;57.96
33414;BME280;60055;41.884;12.534;2023-03-14T06:11:02;100475.69;;;14.86;56.85
33414;BME280;60055;41.884;12.534;2023-03-14T06:13:28;100482.19;;;14.96;57.38
33414;BME280;60055;41.884;12.534;2023-03-14T06:15:53;100485.75;;;15.11;58.55
33414;BME280;60055;41.884;12.534;2023-03-14T06:18:18;100484.53;;;15.16;56.62
33414;BME280;60055;41.884;12.534;2023-03-14T06:20:44;100483.69;;;15.16;56.24
33414;BME280;60055;41.884;12.534;2023-03-14T06:23:12;100484.91;;;15.10;54.38
33414;BME280;60055;41.884;12.534;2023-03-14T06:25:37;100496.63;;;15.22;54.98
33414;BME280;60055;41.884;12.534;2023-03-14T06:28:03;100501.38;;;15.31;55.50
33414;BME280;60055;41.884;12.534;2023-03-14T06:30:28;100504.38;;;15.41;53.77
33414;BME280;60055;41.884;12.534;2023-03-14T06:32:54;100503.16;;;15.46;53.40
33414;BME280;60055;41.884;12.534;2023-03-14T06:35:20;100499.22;;;15.53;53.35
33414;BME280;60055;41.884;12.534;2023-03-14T06:37:46;100490.56;;;15.50;53.01
33414;BME280;60055;41.884;12.534;2023-03-14T06:40:13;100496.44;;;15.55;53.22
33414;BME280;60055;41.884;12.534;2023-03-14T06:42:42;100496.16;;;15.29;53.93
33414;BME280;60055;41.884;12.534;2023-03-14T06:45:08;100494.09;;;15.34;54.00
33414;BME280;60055;41.884;12.534;2023-03-14T06:47:34;100488.09;;;15.31;54.26
33414;BME280;60055;41.884;12.534;2023-03-14T06:49:59;100475.78;;;15.14;55.00
33414;BME280;60055;41.884;12.534;2023-03-14T06:52:24;100478.06;;;15.06;55.72
33414;BME280;60055;41.884;12.534;2023-03-14T06:54:50;100472.91;;;15.03;56.31
33414;BME280;60055;41.884;12.534;2023-03-14T06:57:15;100478.84;;;15.22;55.74
33414;BME280;60055;41.884;12.534;2023-03-14T06:59:40;100475.56;;;15.63;54.27
33414;BME280;60055;41.884;12.534;2023-03-14T07:02:10;100482.69;;;15.62;53.97
33414;BME280;60055;41.884;12.534;2023-03-14T07:04:35;100469.19;;;15.79;54.32
33414;BME280;60055;41.884;12.534;2023-03-14T07:07:01;100474.72;;;16.05;53.66
33414;BME280;60055;41.884;12.534;2023-03-14T07:09:26;100473.00;;;16.18;53.14
33414;BME280;60055;41.884;12.534;2023-03-14T07:11:51;100479.81;;;16.36;51.97
33414;BME280;60055;41.884;12.534;2023-03-14T07:14:17;100477.78;;;16.68;51.85
33414;BME280;60055;41.884;12.534;2023-03-14T07:16:42;100478.66;;;16.95;50.57
33414;BME280;60055;41.884;12.534;2023-03-14T07:19:07;100486.28;;;17.14;49.82
33414;BME280;60055;41.884;12.534;2023-03-14T07:21:33;100487.50;;;17.35;49.82
33414;BME280;60055;41.884;12.534;2023-03-14T07:23:59;100487.94;;;17.42;48.88
33414;BME280;60055;41.884;12.534;2023-03-14T07:26:25;100485.00;;;17.71;48.24
33414;BME280;60055;41.884;12.534;2023-03-14T07:28:50;100471.66;;;17.97;46.90
33414;BME280;60055;41.884;12.534;2023-03-14T07:31:15;100464.56;;;18.33;45.13
33414;BME280;60055;41.884;12.534;2023-03-14T07:33:41;100474.75;;;18.65;44.59
33414;BME280;60055;41.884;12.534;2023-03-14T07:36:07;100452.78;;;18.96;44.74
33414;BME280;60055;41.884;12.534;2023-03-14T07:38:33;100453.53;;;19.33;43.76
33414;BME280;60055;41.884;12.534;2023-03-14T07:41:00;100450.97;;;19.31;43.04
33414;BME280;60055;41.884;12.534;2023-03-14T07:43:26;100439.28;;;19.56;43.43
33414;BME280;60055;41.884;12.534;2023-03-14T07:45:51;100437.66;;;18.84;45.85
33414;BME280;60055;41.884;12.534;2023-03-14T07:48:17;100422.13;;;18.65;46.18
33414;BME280;60055;41.884;12.534;2023-03-14T07:50:49;100418.66;;;18.39;47.57
33414;BME280;60055;41.884;12.534;2023-03-14T07:53:15;100417.41;;;18.69;48.16
33414;BME280;60055;41.884;12.534;2023-03-14T07:55:40;100409.28;;;19.05;48.08
33414;BME280;60055;41.884;12.534;2023-03-14T07:58:06;100399.00;;;19.34;48.15
33414;BME280;60055;41.884;12.534;2023-03-14T08:00:31;100383.00;;;19.45;48.17
33414;BME280;60055;41.884;12.534;2023-03-14T08:02:57;100371.06;;;19.60;47.15
33414;BME280;60055;41.884;12.534;2023-03-14T08:05:22;100366.94;;;19.67;46.23
33414;BME280;60055;41.884;12.534;2023-03-14T08:07:47;100368.81;;;19.21;47.78
33414;BME280;60055;41.884;12.534;2023-03-14T08:10:15;100377.03;;;19.42;47.59
33414;BME280;60055;41.884;12.534;2023-03-14T08:12:53;100354.06;;;19.26;47.72
33414;BME280;60055;41.884;12.534;2023-03-14T08:15:19;100355.41;;;19.21;47.81
33414;BME280;60055;41.884;12.534;2023-03-14T08:17:45;100351.38;;;19.04;48.67
33414;BME280;60055;41.884;12.534;2023-03-14T08:20:18;100355.59;;;19.42;47.53
33414;BME280;60055;41.884;12.534;2023-03-14T08:22:44;100356.31;;;19.44;47.69
33414;BME280;60055;41.884;12.534;2023-03-14T08:25:10;100358.66;;;20.04;46.82
33414;BME280;60055;41.884;12.534;2023-03-14T08:27:35;100351.81;;;20.00;46.79
33414;BME280;60055;41.884;12.534;2023-03-14T08:30:26;100356.78;;;20.15;46.15
33414;BME280;60055;41.884;12.534;2023-03-14T08:33:12;100344.78;;;19.54;47.65
33414;BME280;60055;41.884;12.534;2023-03-14T08:35:38;100352.63;;;19.22;48.94
33414;BME280;60055;41.884;12.534;2023-03-14T08:38:05;100336.75;;;18.97;49.17
33414;BME280;60055;41.884;12.534;2023-03-14T08:40:30;100321.94;;;19.26;48.57
33414;BME280;60055;41.884;12.534;2023-03-14T08:42:56;100328.91;;;18.83;49.55
33414;BME280;60055;41.884;12.534;2023-03-14T08:45:21;100345.59;;;18.52;50.36
33414;BME280;60055;41.884;12.534;2023-03-14T08:47:48;100338.34;;;18.41;50.55
33414;BME280;60055;41.884;12.534;2023-03-14T08:50:14;100325.94;;;18.40;50.87
33414;BME280;60055;41.884;12.534;2023-03-14T08:52:43;100316.81;;;17.95;52.22
33414;BME280;60055;41.884;12.534;2023-03-14T08:55:13;100328.75;;;18.02;51.86
33414;BME280;60055;41.884;12.534;2023-03-14T08:57:42;100300.56;;;17.98;52.37
33414;BME280;60055;41.884;12.534;2023-03-14T09:00:08;100305.72;;;17.88;53.53
33414;BME280;60055;41.884;12.534;2023-03-14T09:02:36;100283.94;;;17.82;53.67
33414;BME280;60055;41.884;12.534;2023-03-14T09:05:01;100260.91;;;17.68;53.80
33414;BME280;60055;41.884;12.534;2023-03-14T09:07:27;100250.31;;;17.79;53.52
33414;BME280;60055;41.884;12.534;2023-03-14T09:09:52;100250.88;;;17.72;53.85
33414;BME280;60055;41.884;12.534;2023-03-14T09:12:17;100252.31;;;17.40;54.59
33414;BME280;60055;41.884;12.534;2023-03-14T09:14:44;100246.38;;;17.23;54.84
33414;BME280;60055;41.884;12.534;2023-03-14T09:17:12;100251.00;;;17.45;54.62
33414;BME280;60055;41.884;12.534;2023-03-14T09:19:37;100263.53;;;17.57;54.04
33414;BME280;60055;41.884;12.534;2023-03-14T09:22:07;100245.03;;;17.67;54.36
33414;BME280;60055;41.884;12.534;2023-03-14T09:24:33;100239.69;;;17.67;54.34
33414;BME280;60055;41.884;12.534;2023-03-14T09:26:58;100253.31;;;17.75;53.98
33414;BME280;60055;41.884;12.534;2023-03-14T09:29:24;100270.72;;;17.68;53.78
33414;BME280;60055;41.884;12.534;2023-03-14T09:31:50;100252.19;;;17.41;54.70
33414;BME280;60055;41.884;12.534;2023-03-14T09:34:15;100266.38;;;17.42;54.96
33414;BME280;60055;41.884;12.534;2023-03-14T09:36:41;100275.91;;;17.46;54.82
33414;BME280;60055;41.884;12.534;2023-03-14T09:39:15;100280.56;;;17.55;54.73
33414;BME280;60055;41.884;12.534;2023-03-14T09:41:47;100288.28;;;17.34;55.45
33414;BME280;60055;41.884;12.534;2023-03-14T09:46:53;100295.34;;;17.22;55.99
33414;BME280;60055;41.884;12.534;2023-03-14T09:49:32;100298.31;;;17.30;56.29
33414;BME280;60055;41.884;12.534;2023-03-14T09:52:02;100313.91;;;17.24;56.37
33414;BME280;60055;41.884;12.534;2023-03-14T09:54:36;100314.03;;;17.22;56.65
33414;BME280;60055;41.884;12.534;2023-03-14T09:57:05;100316.91;;;17.19;56.88
33414;BME280;60055;41.884;12.534;2023-03-14T09:59:31;100309.44;;;17.24;56.10
33414;BME280;60055;41.884;12.534;2023-03-14T10:02:13;100300.91;;;17.19;56.26
33414;BME280;60055;41.884;12.534;2023-03-14T10:04:40;100297.47;;;17.17;56.40
33414;BME280;60055;41.884;12.534;2023-03-14T10:07:17;100283.50;;;17.14;56.17
33414;BME280;60055;41.884;12.534;2023-03-14T10:09:53;100287.66;;;17.18;56.78
33414;BME280;60055;41.884;12.534;2023-03-14T10:12:19;100268.69;;;17.10;56.42
33414;BME280;60055;41.884;12.534;2023-03-14T10:14:51;100284.28;;;17.03;56.69
33414;BME280;60055;41.884;12.534;2023-03-14T10:17:29;100279.16;;;17.13;57.13
33414;BME280;60055;41.884;12.534;2023-03-14T10:19:56;100278.28;;;17.12;57.30
33414;BME280;60055;41.884;12.534;2023-03-14T10:22:25;100277.94;;;17.04;57.09
33414;BME280;60055;41.884;12.534;2023-03-14T10:24:53;100262.69;;;16.94;57.39
33414;BME280;60055;41.884;12.534;2023-03-14T10:27:27;100263.56;;;16.94;57.55
33414;BME280;60055;41.884;12.534;2023-03-14T10:30:08;100268.47;;;16.75;57.94
33414;BME280;60055;41.884;12.534;2023-03-14T10:33:33;100253.53;;;16.85;57.58
33414;BME280;60055;41.884;12.534;2023-03-14T10:36:19;100246.69;;;16.68;57.60
33414;BME280;60055;41.884;12.534;2023-03-14T10:50:24;100260.38;;;16.89;57.13
33414;BME280;60055;41.884;12.534;2023-03-14T10:52:52;100254.56;;;16.70;57.58
33414;BME280;60055;41.884;12.534;2023-03-14T10:55:18;100244.03;;;16.68;58.09
33414;BME280;60055;41.884;12.534;2023-03-14T10:58:16;100239.56;;;16.69;57.99
33414;BME280;60055;41.884;12.534;2023-03-14T11:00:43;100240.16;;;16.60;58.22
33414;BME280;60055;41.884;12.534;2023-03-14T11:03:12;100247.81;;;16.52;58.92
33414;BME280;60055;41.884;12.534;2023-03-14T11:08:35;100232.16;;;16.60;58.14
33414;BME280;60055;41.884;12.534;2023-03-14T11:11:27;100232.06;;;16.61;58.53
33414;BME280;60055;41.884;12.534;2023-03-14T11:14:22;100239.69;;;16.41;59.24
33414;BME280;60055;41.884;12.534;2023-03-14T11:17:34;100219.22;;;16.28;59.56
33414;BME280;60055;41.884;12.534;2023-03-14T11:27:18;100178.81;;;16.34;60.60
33414;BME280;60055;41.884;12.534;2023-03-14T11:30:17;100164.13;;;16.42;60.42
33414;BME280;60055;41.884;12.534;2023-03-14T11:33:08;100165.19;;;16.52;60.25
33414;BME280;60055;41.884;12.534;2023-03-14T11:36:20;100153.78;;;16.37;60.43
33414;BME280;60055;41.884;12.534;2023-03-14T11:38:52;100154.31;;;16.55;60.25
33414;BME280;60055;41.884;12.534;2023-03-14T11:41:32;100157.72;;;16.44;60.83
33414;BME280;60055;41.884;12.534;2023-03-14T11:44:01;100147.06;;;16.44;60.50
33414;BME280;60055;41.884;12.534;2023-03-14T11:46:33;100142.78;;;16.29;61.06
33414;BME280;60055;41.884;12.534;2023-03-14T11:51:35;100117.00;;;16.17;61.71
33414;BME280;60055;41.884;12.534;2023-03-14T11:56:42;100103.78;;;16.41;61.43
33414;BME280;60055;41.884;12.534;2023-03-14T11:59:20;100104.22;;;16.34;61.64
33414;BME280;60055;41.884;12.534;2023-03-14T12:10:26;100055.38;;;16.47;61.88
33414;BME280;60055;41.884;12.534;2023-03-14T12:12:52;100044.00;;;16.57;61.54
33414;BME280;60055;41.884;12.534;2023-03-14T12:15:20;100048.75;;;16.77;61.15
33414;BME280;60055;41.884;12.534;2023-03-14T12:17:54;100041.75;;;16.51;62.07
33414;BME280;60055;41.884;12.534;2023-03-14T12:20:22;100041.31;;;16.45;62.18
33414;BME280;60055;41.884;12.534;2023-03-14T12:25:19;100019.50;;;16.27;62.70
33414;BME280;60055;41.884;12.534;2023-03-14T12:30:29;100016.25;;;16.47;62.25
33414;BME280;60055;41.884;12.534;2023-03-14T12:35:51;100003.81;;;16.35;61.96
33414;BME280;60055;41.884;12.534;2023-03-14T12:43:40;99984.53;;;16.31;62.57
33414;BME280;60055;41.884;12.534;2023-03-14T12:48:44;99950.91;;;16.54;61.11
33414;BME280;60055;41.884;12.534;2023-03-14T12:59:47;99921.56;;;16.67;60.83
33414;BME280;60055;41.884;12.534;2023-03-14T13:02:48;99894.78;;;16.68;60.62
33414;BME280;60055;41.884;12.534;2023-03-14T13:05:36;99892.72;;;16.96;59.88
33414;BME280;60055;41.884;12.534;2023-03-14T13:08:05;99884.44;;;16.88;59.39
33414;BME280;60055;41.884;12.534;2023-03-14T13:57:05;99859.97;;;16.59;61.64
33414;BME280;60055;41.884;12.534;2023-03-14T13:59:57;99861.13;;;16.55;61.91
33414;BME280;60055;41.884;12.534;2023-03-14T14:02:25;99855.50;;;16.47;62.24
33414;BME280;60055;41.884;12.534;2023-03-14T14:04:50;99847.03;;;16.29;62.63
33414;BME280;60055;41.884;12.534;2023-03-14T14:07:16;99842.69;;;16.28;62.74
33414;BME280;60055;41.884;12.534;2023-03-14T14:09:57;99837.06;;;16.20;62.86
33414;BME280;60055;41.884;12.534;2023-03-14T14:12:52;99835.72;;;16.14;63.05
33414;BME280;60055;41.884;12.534;2023-03-14T14:15:26;99829.13;;;16.07;63.62
33414;BME280;60055;41.884;12.534;2023-03-14T14:18:01;99830.63;;;16.11;63.54
33414;BME280;60055;41.884;12.534;2023-03-14T14:20:34;99823.97;;;16.17;63.40
33414;BME280;60055;41.884;12.534;2023-03-14T14:23:05;99825.28;;;16.11;63.94
33414;BME280;60055;41.884;12.534;2023-03-14T14:25:32;99817.41;;;16.10;64.28
33414;BME280;60055;41.884;12.534;2023-03-14T14:34:03;99782.22;;;15.94;65.98
33414;BME280;60055;41.884;12.534;2023-03-14T14:36:38;99783.13;;;16.05;65.44
33414;BME280;60055;41.884;12.534;2023-03-14T14:39:20;99779.72;;;16.27;65.19
33414;BME280;60055;41.884;12.534;2023-03-14T14:41:48;99770.66;;;16.06;65.80
33414;BME280;60055;41.884;12.534;2023-03-14T14:44:18;99766.69;;;16.11;66.08
33414;BME280;60055;41.884;12.534;2023-03-14T14:46:43;99759.91;;;16.07;65.89